»·PEaware :: N6218B S21-KPDX

N6218B :: S21-KPDX

FLIGHT INFORMATION

Flight Status: Arrived
Operator: Privately registered:
United States
More flights under this callsign
Pilot: Anonymous 16594 (16594)
Aircraft: CESSNA 182 SKYLANE
(C182)
More flights by this aircraft type
Origin: S21 Sunriver
United States
Destination: KPDX Portland Intl
United States
More flights between these airports :: More routes between these airports
Route: +DSD V165 MAVER V448 MULES DCT
File this flight plan on PilotEdge
Remarks:
Altitude:
(Current/Filed)
12,000ft
Speed:
(Current/Filed)
150kts
Departed: 17-Feb-18 05:18 PM
Arrived: 17-Feb-18 06:36 PM
Distance/Time
Traveled:
113nm/1:17
Distance/Time
To Go:
Arrived

Flight Plot

Page will automatically refresh every two minutes.

Flight plan parsing failed; only flown route is shown


Map Options




Map Legend


Flown Route
Filed Route
Departure Airport
Arrival Airport
Navaid (VOR, NDB)
Fix

Horizontal Profiles

Position Reports

Time Latitude Longitude Heading Altitude Ground
Speed
17-Feb-18 17:12 43.876463 -121.453895 104 4167ft 0kts
17-Feb-18 17:13 43.876463 -121.453895 104 4167ft 0kts
17-Feb-18 17:14 43.876463 -121.453895 104 4167ft 0kts
17-Feb-18 17:15 43.876463 -121.453895 104 4167ft 0kts
17-Feb-18 17:16 43.876462 -121.453893 104 4167ft 0kts
17-Feb-18 17:17 43.876461 -121.453888 104 4167ft 0kts
17-Feb-18 17:18 43.876460 -121.453883 104 4167ft 0kts
17-Feb-18 17:19 43.876459 -121.453878 104 4167ft 0kts
17-Feb-18 17:20 43.876458 -121.453873 104 4167ft 0kts
17-Feb-18 17:21 43.876457 -121.453868 104 4167ft 0kts
17-Feb-18 17:22 43.875839 -121.453867 195 4167ft 14kts
17-Feb-18 17:23 43.869299 -121.456382 191 4167ft 11kts
17-Feb-18 17:24 43.869178 -121.455995 87 4167ft 8kts
17-Feb-18 17:25 43.878366 -121.452260 5 4206ft 95kts
17-Feb-18 17:26 43.905157 -121.441415 3 4925ft 98kts
17-Feb-18 17:27 43.930873 -121.431590 1 5707ft 89kts
17-Feb-18 17:28 43.960153 -121.420185 2 6094ft 128kts
17-Feb-18 17:29 43.994673 -121.406299 0 6678ft 128kts
17-Feb-18 17:30 44.028909 -121.392699 357 7263ft 127kts
17-Feb-18 17:31 44.062580 -121.379300 354 7884ft 122kts
17-Feb-18 17:32 44.094475 -121.366594 351 8562ft 116kts
17-Feb-18 17:33 44.125762 -121.354276 350 9128ft 119kts
17-Feb-18 17:34 44.158205 -121.341327 350 9645ft 122kts
17-Feb-18 17:35 44.191109 -121.328185 349 10150ft 123kts
17-Feb-18 17:36 44.223779 -121.315117 346 10645ft 121kts
17-Feb-18 17:37 44.255002 -121.306542 303 11055ft 81kts
17-Feb-18 17:38 44.266948 -121.324472 287 11467ft 65kts
17-Feb-18 17:39 44.279268 -121.342718 287 11869ft 63kts
17-Feb-18 17:40 44.292991 -121.363246 290 11973ft 83kts
17-Feb-18 17:41 44.309253 -121.387123 291 11975ft 92kts
17-Feb-18 17:42 44.327131 -121.413577 292 11976ft 94kts
17-Feb-18 17:43 44.345368 -121.440610 292 11976ft 95kts
17-Feb-18 17:44 44.363577 -121.467632 292 11977ft 95kts
17-Feb-18 17:45 44.381845 -121.494799 292 11980ft 96kts
17-Feb-18 17:46 44.400368 -121.522383 292 11977ft 98kts
17-Feb-18 17:47 44.419023 -121.550217 292 11985ft 97kts
17-Feb-18 17:48 44.437689 -121.577980 292 11985ft 97kts
17-Feb-18 17:49 44.456278 -121.605742 292 11985ft 97kts
17-Feb-18 17:50 44.474890 -121.633523 292 11990ft 97kts
17-Feb-18 17:51 44.493415 -121.661221 292 11993ft 97kts
17-Feb-18 17:52 44.511939 -121.688928 292 11996ft 97kts
17-Feb-18 17:53 44.530543 -121.716769 292 11996ft 97kts
17-Feb-18 17:54 44.549063 -121.744548 292 11999ft 97kts
17-Feb-18 17:55 44.567577 -121.772352 292 12002ft 97kts
17-Feb-18 17:56 44.586144 -121.800251 292 12005ft 97kts
17-Feb-18 17:57 44.604639 -121.828066 292 12008ft 97kts
17-Feb-18 17:58 44.623183 -121.855983 292 12011ft 97kts
17-Feb-18 17:59 44.641663 -121.883831 292 12013ft 97kts
17-Feb-18 18:00 44.660156 -121.911726 292 12016ft 97kts
17-Feb-18 18:01 44.678690 -121.939710 292 12019ft 97kts
17-Feb-18 18:02 44.697130 -121.967574 292 12022ft 97kts
17-Feb-18 18:03 44.715632 -121.995581 292 12024ft 97kts
17-Feb-18 18:04 44.734117 -122.023572 293 12035ft 97kts
17-Feb-18 18:05 44.752464 -122.051392 293 12050ft 97kts
17-Feb-18 18:06 44.770964 -122.079466 293 12055ft 97kts
17-Feb-18 18:07 44.789394 -122.107437 293 12058ft 97kts
17-Feb-18 18:08 44.807787 -122.135398 293 12061ft 97kts
17-Feb-18 18:09 44.826230 -122.163524 293 12064ft 97kts
17-Feb-18 18:10 44.844708 -122.191689 293 12068ft 98kts
17-Feb-18 18:11 44.863242 -122.219959 294 12071ft 98kts
17-Feb-18 18:12 44.881694 -122.248138 294 12074ft 98kts
17-Feb-18 18:13 44.900155 -122.276359 294 12077ft 98kts
17-Feb-18 18:14 44.918679 -122.304704 294 12080ft 97kts
17-Feb-18 18:15 44.937042 -122.332831 294 12082ft 97kts
17-Feb-18 18:16 44.955425 -122.361007 294 12085ft 97kts
17-Feb-18 18:17 44.973937 -122.388868 303 12089ft 105kts
17-Feb-18 18:18 45.010263 -122.376875 355 11213ft 133kts
17-Feb-18 18:19 45.044113 -122.365750 346 10246ft 125kts
17-Feb-18 18:20 45.080886 -122.357824 346 9262ft 140kts
17-Feb-18 18:21 45.120429 -122.352363 345 8265ft 144kts
17-Feb-18 18:22 45.160757 -122.348285 346 7262ft 145kts
17-Feb-18 18:23 45.201051 -122.345387 347 6261ft 146kts
17-Feb-18 18:24 45.237732 -122.340640 346 6051ft 117kts
17-Feb-18 18:25 45.269501 -122.334518 346 5874ft 121kts
17-Feb-18 18:26 45.304992 -122.330573 347 5302ft 131kts
17-Feb-18 18:27 45.341516 -122.328288 347 4699ft 131kts
17-Feb-18 18:28 45.376140 -122.327331 346 4089ft 120kts
17-Feb-18 18:29 45.407705 -122.326309 345 4059ft 108kts
17-Feb-18 18:30 45.437793 -122.324846 346 3907ft 118kts
17-Feb-18 18:31 45.470252 -122.334556 326 3330ft 119kts
17-Feb-18 18:32 45.497958 -122.351395 316 3047ft 75kts
17-Feb-18 18:33 45.507558 -122.367513 285 2851ft 48kts
17-Feb-18 18:34 45.514253 -122.386841 289 2685ft 65kts
17-Feb-18 18:35 45.524182 -122.412934 290 2476ft 81kts
17-Feb-18 18:36 45.533720 -122.437128 288 2100ft 59kts
17-Feb-18 18:37 45.542039 -122.458626 287 1769ft 64kts
17-Feb-18 18:38 45.551571 -122.481339 291 1418ft 68kts
17-Feb-18 18:39 45.559782 -122.504926 285 1008ft 66kts
17-Feb-18 18:40 45.568269 -122.528494 296 681ft 68kts
17-Feb-18 18:41 45.577179 -122.550540 292 331ft 59kts
17-Feb-18 18:42 45.584627 -122.569502 291 45ft 48kts
17-Feb-18 18:43 45.586857 -122.577399 198 33ft 10kts
17-Feb-18 18:44 45.585069 -122.578813 209 33ft 0kts
17-Feb-18 18:45 45.585069 -122.578813 209 33ft 0kts

Navigation Log

Ident Type
Flight plan parsing failed, navigation log unavailable